Terminal Aerodrome Forecast
Issued by NWS Twin Cities, MN

Home | Current Version | Previous Version | Graphics & Text | Print | Product List | Glossary On
Versions: 1 2 3 4 5 6 7 8 9 10 11 12
000
FTUS43 KMPX 011720
TAFSTC
TAF
KSTC 011720Z 0118/0218 14007KT P6SM SCT050 SCT250
     FM020200 12004KT P6SM BKN150
     FM021400 16004KT P6SM SCT250=

USA.gov is the U.S. government's official web portal to all federal, state and local government web resources and services.